Lakeview, Illinois
Current Conditions -  °F | °C
As of 8:51 AM on Monday 22 Dec 2014 (Local Time) from KORD Reporting Station
Haze Haze  
Wind Chill: 25°   Ceiling: 8000
Heat Index: 33°   Visibility: 6mi
Dew Point: 27°   Wind: 10mph
Humidity: 78%   Direction: 130°SE
Pressure: 29.9"   Gusts: NA
Location:  41.9541°N, 87.6605°W
Report Text: KORD 221451Z 13009KT 6SM HZ FEW060 OVC080 01/M03 A2990 RMK AO2 SLP130 T00061028 58014
Loading
Personal Weather Stations






























Interactive Weather Map New forecast layout! Learn more

10-Day Weather Forecast

Advertisements
Track Severe Weather on mobile